createdAt,value
2022-11-09T00:06:20.000Z,1.4
2022-11-09T00:20:58.000Z,1.5
2022-11-09T00:35:36.000Z,1.5
2022-11-09T00:50:11.000Z,1.3
2022-11-09T01:04:50.000Z,1.4
2022-11-09T01:19:30.000Z,1.3
2022-11-09T01:34:06.000Z,1.4
2022-11-09T01:48:44.000Z,1.3
2022-11-09T02:03:25.000Z,1.3
2022-11-09T02:17:56.000Z,1
2022-11-09T02:32:31.000Z,0.9
2022-11-09T02:47:08.000Z,0.8
2022-11-09T03:01:47.000Z,0.9
2022-11-09T03:16:23.000Z,0.9
2022-11-09T03:31:02.000Z,0.9
2022-11-09T03:45:41.000Z,0.7
2022-11-09T04:00:24.000Z,0.8
2022-11-09T04:14:55.000Z,0.7
2022-11-09T04:29:34.000Z,0.6
2022-11-09T04:44:13.000Z,0.5
2022-11-09T04:58:52.000Z,0.5
2022-11-09T05:13:31.000Z,0.6
2022-11-09T05:28:10.000Z,0.6
2022-11-09T05:42:48.000Z,0.5
2022-11-09T05:57:24.000Z,0.7
2022-11-09T06:12:03.000Z,0.5
2022-11-09T06:26:44.000Z,0.5
2022-11-09T06:41:22.000Z,0.5
2022-11-09T06:56:01.000Z,0.6
2022-11-09T07:10:41.000Z,0.4
2022-11-09T07:25:20.000Z,0.7
2022-11-09T07:39:59.000Z,1.1
2022-11-09T07:54:38.000Z,0.7
2022-11-09T08:09:19.000Z,0.6
2022-11-09T08:23:59.000Z,0.6
2022-11-09T08:38:38.000Z,0.7
2022-11-09T08:53:24.000Z,0.7
2022-11-09T09:08:03.000Z,0.8
2022-11-09T09:22:38.000Z,1
2022-11-09T09:37:16.000Z,0.6
2022-11-09T09:51:55.000Z,0.6
2022-11-09T10:06:32.000Z,0.7
2022-11-09T10:35:52.000Z,0.9
2022-11-09T10:50:28.000Z,0.8
2022-11-09T11:05:05.000Z,0.7
2022-11-09T11:19:42.000Z,0.7
2022-11-09T11:34:20.000Z,0.5
2022-11-09T11:48:57.000Z,0.7
2022-11-09T12:03:33.000Z,0.6
2022-11-09T12:18:13.000Z,0.8
2022-11-09T12:32:52.000Z,0.7
2022-11-09T12:47:30.000Z,0.8
2022-11-09T13:02:07.000Z,0.9
2022-11-09T13:16:44.000Z,1.1
2022-11-09T13:31:22.000Z,0.9
2022-11-09T13:45:59.000Z,0.9
2022-11-09T14:00:38.000Z,0.9
2022-11-09T14:15:17.000Z,0.7
2022-11-09T14:29:52.000Z,1.2
2022-11-09T14:44:32.000Z,1
2022-11-09T14:59:01.000Z,0.9
2022-11-09T15:13:39.000Z,1
2022-11-09T15:28:18.000Z,1.2
2022-11-09T15:42:55.000Z,1
2022-11-09T15:57:32.000Z,1.3
2022-11-09T16:12:02.000Z,1.3
2022-11-09T16:26:35.000Z,1.6
2022-11-09T16:41:12.000Z,1.4
2022-11-09T16:55:50.000Z,1.7
2022-11-09T17:10:28.000Z,1.8
2022-11-09T17:25:06.000Z,1.6
2022-11-09T17:39:44.000Z,1.8
2022-11-09T17:54:24.000Z,1.9
2022-11-09T18:09:01.000Z,2
2022-11-09T18:23:35.000Z,2.5
2022-11-09T18:38:12.000Z,1.8
2022-11-09T18:52:50.000Z,1.9
2022-11-09T19:07:29.000Z,1.8
2022-11-09T19:22:05.000Z,2.3
2022-11-09T19:36:43.000Z,2.4
2022-11-09T19:51:16.000Z,2.9
2022-11-09T20:05:51.000Z,3
2022-11-09T20:20:28.000Z,2.4
2022-11-09T20:35:04.000Z,2.4
2022-11-09T20:49:42.000Z,2.5
2022-11-09T21:04:22.000Z,2.4
2022-11-09T21:19:01.000Z,1.9
2022-11-09T21:33:38.000Z,2
2022-11-09T21:48:15.000Z,2.5
2022-11-09T22:02:52.000Z,2.7
2022-11-09T22:17:31.000Z,2.7
2022-11-09T22:32:09.000Z,2.6
2022-11-09T22:46:43.000Z,2.1
2022-11-09T23:01:22.000Z,2.3
2022-11-09T23:16:00.000Z,2.1
2022-11-09T23:30:38.000Z,2
2022-11-09T23:45:18.000Z,2.1
2022-11-09T23:59:55.000Z,2.8
